sensor_id;sensor_type;location;lat;lon;timestamp;P1;durP1;ratioP1;P2;durP2;ratioP2
14510;SDS011;7341;50.930;4.038;2023-01-30T00:01:34;37.07;;;24.70;;
14510;SDS011;7341;50.930;4.038;2023-01-30T00:04:02;40.63;;;26.13;;
14510;SDS011;7341;50.930;4.038;2023-01-30T00:06:29;36.17;;;25.60;;
14510;SDS011;7341;50.930;4.038;2023-01-30T00:08:57;38.47;;;24.70;;
14510;SDS011;7341;50.930;4.038;2023-01-30T00:11:30;36.17;;;23.53;;
14510;SDS011;7341;50.930;4.038;2023-01-30T00:14:01;35.90;;;24.63;;
14510;SDS011;7341;50.930;4.038;2023-01-30T00:16:29;36.27;;;25.33;;
14510;SDS011;7341;50.930;4.038;2023-01-30T00:18:55;37.20;;;24.43;;
14510;SDS011;7341;50.930;4.038;2023-01-30T00:21:22;38.20;;;24.77;;
14510;SDS011;7341;50.930;4.038;2023-01-30T00:23:49;37.33;;;25.40;;
14510;SDS011;7341;50.930;4.038;2023-01-30T00:26:17;39.10;;;24.83;;
14510;SDS011;7341;50.930;4.038;2023-01-30T00:28:45;35.77;;;24.47;;
14510;SDS011;7341;50.930;4.038;2023-01-30T00:31:13;34.13;;;24.40;;
14510;SDS011;7341;50.930;4.038;2023-01-30T00:33:40;39.17;;;26.03;;
14510;SDS011;7341;50.930;4.038;2023-01-30T00:36:10;38.13;;;24.87;;
14510;SDS011;7341;50.930;4.038;2023-01-30T00:38:38;34.30;;;24.00;;
14510;SDS011;7341;50.930;4.038;2023-01-30T00:41:05;34.13;;;23.43;;
14510;SDS011;7341;50.930;4.038;2023-01-30T00:43:33;38.37;;;25.23;;
14510;SDS011;7341;50.930;4.038;2023-01-30T00:46:21;37.53;;;24.20;;
14510;SDS011;7341;50.930;4.038;2023-01-30T00:49:09;36.10;;;24.13;;
14510;SDS011;7341;50.930;4.038;2023-01-30T00:51:36;34.20;;;23.70;;
14510;SDS011;7341;50.930;4.038;2023-01-30T00:54:05;32.67;;;23.13;;
14510;SDS011;7341;50.930;4.038;2023-01-30T00:56:31;37.40;;;23.83;;
14510;SDS011;7341;50.930;4.038;2023-01-30T00:58:58;37.10;;;23.87;;
14510;SDS011;7341;50.930;4.038;2023-01-30T01:01:27;32.33;;;22.93;;
14510;SDS011;7341;50.930;4.038;2023-01-30T01:04:02;36.23;;;21.67;;
14510;SDS011;7341;50.930;4.038;2023-01-30T01:06:30;29.37;;;22.03;;
14510;SDS011;7341;50.930;4.038;2023-01-30T01:08:57;30.50;;;21.93;;
14510;SDS011;7341;50.930;4.038;2023-01-30T01:11:25;31.63;;;21.20;;
14510;SDS011;7341;50.930;4.038;2023-01-30T01:13:53;33.60;;;21.70;;
14510;SDS011;7341;50.930;4.038;2023-01-30T01:16:21;31.27;;;21.63;;
14510;SDS011;7341;50.930;4.038;2023-01-30T01:18:52;31.33;;;21.90;;
14510;SDS011;7341;50.930;4.038;2023-01-30T01:21:25;30.40;;;20.53;;
14510;SDS011;7341;50.930;4.038;2023-01-30T01:23:54;30.97;;;20.37;;
14510;SDS011;7341;50.930;4.038;2023-01-30T01:26:34;33.37;;;20.37;;
14510;SDS011;7341;50.930;4.038;2023-01-30T01:29:03;33.20;;;20.37;;
14510;SDS011;7341;50.930;4.038;2023-01-30T01:31:30;34.47;;;21.17;;
14510;SDS011;7341;50.930;4.038;2023-01-30T01:33:59;27.10;;;18.67;;
14510;SDS011;7341;50.930;4.038;2023-01-30T01:36:26;27.33;;;19.13;;
14510;SDS011;7341;50.930;4.038;2023-01-30T01:38:53;23.60;;;18.67;;
14510;SDS011;7341;50.930;4.038;2023-01-30T01:41:22;27.50;;;17.50;;
14510;SDS011;7341;50.930;4.038;2023-01-30T01:43:58;26.67;;;18.03;;
14510;SDS011;7341;50.930;4.038;2023-01-30T01:46:33;20.87;;;15.43;;
14510;SDS011;7341;50.930;4.038;2023-01-30T01:49:04;23.13;;;15.67;;
14510;SDS011;7341;50.930;4.038;2023-01-30T01:51:34;22.80;;;14.73;;
14510;SDS011;7341;50.930;4.038;2023-01-30T01:54:07;24.80;;;14.27;;
14510;SDS011;7341;50.930;4.038;2023-01-30T01:56:38;20.77;;;13.67;;
14510;SDS011;7341;50.930;4.038;2023-01-30T01:59:09;18.80;;;13.13;;
14510;SDS011;7341;50.930;4.038;2023-01-30T02:01:42;17.97;;;13.93;;
14510;SDS011;7341;50.930;4.038;2023-01-30T02:04:12;18.47;;;13.77;;
14510;SDS011;7341;50.930;4.038;2023-01-30T02:06:59;23.47;;;14.07;;
14510;SDS011;7341;50.930;4.038;2023-01-30T02:09:26;22.40;;;14.13;;
14510;SDS011;7341;50.930;4.038;2023-01-30T02:11:55;18.80;;;13.23;;
14510;SDS011;7341;50.930;4.038;2023-01-30T02:14:27;17.80;;;13.43;;
14510;SDS011;7341;50.930;4.038;2023-01-30T02:16:59;18.03;;;13.33;;
14510;SDS011;7341;50.930;4.038;2023-01-30T02:19:30;20.30;;;13.87;;
14510;SDS011;7341;50.930;4.038;2023-01-30T02:22:17;19.60;;;13.90;;
14510;SDS011;7341;50.930;4.038;2023-01-30T02:25:07;19.07;;;13.77;;
14510;SDS011;7341;50.930;4.038;2023-01-30T02:36:46;18.23;;;13.97;;
14510;SDS011;7341;50.930;4.038;2023-01-30T02:39:28;20.93;;;13.70;;
14510;SDS011;7341;50.930;4.038;2023-01-30T02:42:07;22.23;;;14.50;;
14510;SDS011;7341;50.930;4.038;2023-01-30T02:44:48;21.17;;;13.93;;
14510;SDS011;7341;50.930;4.038;2023-01-30T02:47:22;22.70;;;14.53;;
14510;SDS011;7341;50.930;4.038;2023-01-30T02:49:56;22.33;;;14.60;;
14510;SDS011;7341;50.930;4.038;2023-01-30T02:52:27;22.53;;;13.87;;
14510;SDS011;7341;50.930;4.038;2023-01-30T02:54:55;18.33;;;13.00;;
14510;SDS011;7341;50.930;4.038;2023-01-30T02:57:24;19.00;;;13.20;;
14510;SDS011;7341;50.930;4.038;2023-01-30T02:59:53;18.63;;;13.47;;
14510;SDS011;7341;50.930;4.038;2023-01-30T03:02:33;17.90;;;12.33;;
14510;SDS011;7341;50.930;4.038;2023-01-30T03:08:10;18.03;;;12.30;;
14510;SDS011;7341;50.930;4.038;2023-01-30T03:10:47;19.07;;;13.43;;
14510;SDS011;7341;50.930;4.038;2023-01-30T03:13:23;19.73;;;13.37;;
14510;SDS011;7341;50.930;4.038;2023-01-30T03:15:58;22.00;;;14.23;;
14510;SDS011;7341;50.930;4.038;2023-01-30T03:18:32;17.67;;;12.33;;
14510;SDS011;7341;50.930;4.038;2023-01-30T03:21:02;17.23;;;12.93;;
14510;SDS011;7341;50.930;4.038;2023-01-30T03:23:31;17.90;;;11.80;;
14510;SDS011;7341;50.930;4.038;2023-01-30T03:25:58;16.33;;;11.30;;
14510;SDS011;7341;50.930;4.038;2023-01-30T03:28:28;18.73;;;11.07;;
14510;SDS011;7341;50.930;4.038;2023-01-30T03:30:55;15.97;;;10.77;;
14510;SDS011;7341;50.930;4.038;2023-01-30T03:33:22;20.13;;;11.53;;
14510;SDS011;7341;50.930;4.038;2023-01-30T03:35:54;18.20;;;10.67;;
14510;SDS011;7341;50.930;4.038;2023-01-30T03:38:21;19.10;;;9.43;;
14510;SDS011;7341;50.930;4.038;2023-01-30T03:40:50;14.97;;;9.83;;
14510;SDS011;7341;50.930;4.038;2023-01-30T03:43:18;16.97;;;10.07;;
14510;SDS011;7341;50.930;4.038;2023-01-30T03:45:44;20.07;;;9.07;;
14510;SDS011;7341;50.930;4.038;2023-01-30T03:48:11;12.70;;;10.13;;
14510;SDS011;7341;50.930;4.038;2023-01-30T03:50:38;12.93;;;9.60;;
14510;SDS011;7341;50.930;4.038;2023-01-30T03:53:10;15.10;;;8.50;;
14510;SDS011;7341;50.930;4.038;2023-01-30T03:55:39;16.23;;;8.63;;
14510;SDS011;7341;50.930;4.038;2023-01-30T03:58:06;18.27;;;8.27;;
14510;SDS011;7341;50.930;4.038;2023-01-30T04:00:33;17.80;;;8.63;;
14510;SDS011;7341;50.930;4.038;2023-01-30T04:03:01;13.67;;;7.63;;
14510;SDS011;7341;50.930;4.038;2023-01-30T04:05:28;16.80;;;8.70;;
14510;SDS011;7341;50.930;4.038;2023-01-30T04:07:55;12.10;;;6.80;;
14510;SDS011;7341;50.930;4.038;2023-01-30T04:10:23;10.90;;;6.97;;
14510;SDS011;7341;50.930;4.038;2023-01-30T04:12:52;13.13;;;7.67;;
14510;SDS011;7341;50.930;4.038;2023-01-30T04:15:20;17.57;;;6.70;;
14510;SDS011;7341;50.930;4.038;2023-01-30T04:17:47;14.20;;;7.17;;
14510;SDS011;7341;50.930;4.038;2023-01-30T04:20:14;16.60;;;7.93;;
14510;SDS011;7341;50.930;4.038;2023-01-30T04:22:42;12.20;;;7.10;;
14510;SDS011;7341;50.930;4.038;2023-01-30T04:25:10;14.33;;;7.13;;
14510;SDS011;7341;50.930;4.038;2023-01-30T04:27:40;13.30;;;7.27;;
14510;SDS011;7341;50.930;4.038;2023-01-30T04:30:09;11.03;;;6.67;;
14510;SDS011;7341;50.930;4.038;2023-01-30T04:32:44;10.90;;;6.03;;
14510;SDS011;7341;50.930;4.038;2023-01-30T04:35:11;15.03;;;7.07;;
14510;SDS011;7341;50.930;4.038;2023-01-30T04:37:38;13.37;;;6.17;;
14510;SDS011;7341;50.930;4.038;2023-01-30T04:40:06;13.00;;;6.13;;
14510;SDS011;7341;50.930;4.038;2023-01-30T04:42:36;9.87;;;6.07;;
14510;SDS011;7341;50.930;4.038;2023-01-30T04:45:10;15.20;;;6.07;;
14510;SDS011;7341;50.930;4.038;2023-01-30T04:47:37;15.13;;;6.80;;
14510;SDS011;7341;50.930;4.038;2023-01-30T04:50:04;13.17;;;7.10;;
14510;SDS011;7341;50.930;4.038;2023-01-30T04:52:37;11.43;;;5.70;;
14510;SDS011;7341;50.930;4.038;2023-01-30T04:55:04;10.20;;;5.43;;
14510;SDS011;7341;50.930;4.038;2023-01-30T04:57:34;11.77;;;5.63;;
14510;SDS011;7341;50.930;4.038;2023-01-30T05:00:03;10.57;;;4.87;;
14510;SDS011;7341;50.930;4.038;2023-01-30T05:02:34;14.70;;;5.33;;
14510;SDS011;7341;50.930;4.038;2023-01-30T05:05:01;7.67;;;4.93;;
14510;SDS011;7341;50.930;4.038;2023-01-30T05:07:29;10.47;;;4.80;;
14510;SDS011;7341;50.930;4.038;2023-01-30T05:09:56;8.23;;;4.60;;
14510;SDS011;7341;50.930;4.038;2023-01-30T05:12:23;14.17;;;5.63;;
14510;SDS011;7341;50.930;4.038;2023-01-30T05:14:50;10.93;;;4.90;;
14510;SDS011;7341;50.930;4.038;2023-01-30T05:17:26;8.03;;;5.27;;
14510;SDS011;7341;50.930;4.038;2023-01-30T05:19:56;8.10;;;5.17;;
14510;SDS011;7341;50.930;4.038;2023-01-30T05:22:24;8.13;;;5.20;;
14510;SDS011;7341;50.930;4.038;2023-01-30T05:24:52;12.05;;;6.25;;
14510;SDS011;7341;50.930;4.038;2023-01-30T05:27:19;12.33;;;5.10;;
14510;SDS011;7341;50.930;4.038;2023-01-30T05:29:46;10.13;;;4.83;;
14510;SDS011;7341;50.930;4.038;2023-01-30T05:32:13;6.53;;;4.63;;
14510;SDS011;7341;50.930;4.038;2023-01-30T05:34:41;8.73;;;4.40;;
14510;SDS011;7341;50.930;4.038;2023-01-30T05:37:10;10.77;;;5.10;;
14510;SDS011;7341;50.930;4.038;2023-01-30T05:39:38;6.97;;;4.63;;
14510;SDS011;7341;50.930;4.038;2023-01-30T05:42:12;7.17;;;4.03;;
14510;SDS011;7341;50.930;4.038;2023-01-30T05:44:40;6.87;;;4.43;;
14510;SDS011;7341;50.930;4.038;2023-01-30T05:47:07;9.87;;;4.50;;
14510;SDS011;7341;50.930;4.038;2023-01-30T05:49:34;7.57;;;4.93;;
14510;SDS011;7341;50.930;4.038;2023-01-30T05:52:02;7.60;;;4.90;;
14510;SDS011;7341;50.930;4.038;2023-01-30T05:54:33;7.77;;;5.37;;
14510;SDS011;7341;50.930;4.038;2023-01-30T05:57:05;10.73;;;4.80;;
14510;SDS011;7341;50.930;4.038;2023-01-30T05:59:33;15.30;;;5.23;;
14510;SDS011;7341;50.930;4.038;2023-01-30T06:02:00;15.10;;;5.03;;
14510;SDS011;7341;50.930;4.038;2023-01-30T06:04:27;12.53;;;5.17;;
14510;SDS011;7341;50.930;4.038;2023-01-30T06:06:55;9.87;;;5.13;;
14510;SDS011;7341;50.930;4.038;2023-01-30T06:09:23;5.33;;;4.77;;
14510;SDS011;7341;50.930;4.038;2023-01-30T06:11:52;13.33;;;6.10;;
14510;SDS011;7341;50.930;4.038;2023-01-30T06:16:55;6.90;;;4.73;;
14510;SDS011;7341;50.930;4.038;2023-01-30T06:19:22;8.30;;;5.40;;
14510;SDS011;7341;50.930;4.038;2023-01-30T06:21:49;10.33;;;5.00;;
14510;SDS011;7341;50.930;4.038;2023-01-30T06:24:17;9.32;;;6.13;;
14510;SDS011;7341;50.930;4.038;2023-01-30T06:26:44;7.00;;;5.17;;
14510;SDS011;7341;50.930;4.038;2023-01-30T06:29:15;8.73;;;5.00;;
14510;SDS011;7341;50.930;4.038;2023-01-30T06:31:44;8.93;;;5.57;;
14510;SDS011;7341;50.930;4.038;2023-01-30T06:34:10;8.93;;;5.23;;
14510;SDS011;7341;50.930;4.038;2023-01-30T06:36:37;7.03;;;5.13;;
14510;SDS011;7341;50.930;4.038;2023-01-30T06:39:05;12.90;;;4.97;;
14510;SDS011;7341;50.930;4.038;2023-01-30T06:41:32;11.90;;;5.20;;
14510;SDS011;7341;50.930;4.038;2023-01-30T06:43:59;10.00;;;4.80;;
14510;SDS011;7341;50.930;4.038;2023-01-30T06:46:27;11.60;;;5.77;;
14510;SDS011;7341;50.930;4.038;2023-01-30T06:48:54;10.03;;;5.27;;
14510;SDS011;7341;50.930;4.038;2023-01-30T06:51:23;9.07;;;4.57;;
14510;SDS011;7341;50.930;4.038;2023-01-30T06:53:51;8.83;;;4.73;;
14510;SDS011;7341;50.930;4.038;2023-01-30T06:56:18;8.80;;;4.17;;
14510;SDS011;7341;50.930;4.038;2023-01-30T06:58:47;8.77;;;4.43;;
14510;SDS011;7341;50.930;4.038;2023-01-30T07:01:14;10.33;;;4.73;;
14510;SDS011;7341;50.930;4.038;2023-01-30T07:03:46;12.57;;;4.70;;
14510;SDS011;7341;50.930;4.038;2023-01-30T07:06:14;8.77;;;4.17;;
14510;SDS011;7341;50.930;4.038;2023-01-30T07:08:41;9.00;;;3.93;;
14510;SDS011;7341;50.930;4.038;2023-01-30T07:11:09;14.27;;;3.97;;
14510;SDS011;7341;50.930;4.038;2023-01-30T07:13:38;8.73;;;3.90;;
14510;SDS011;7341;50.930;4.038;2023-01-30T07:16:06;10.00;;;3.57;;
14510;SDS011;7341;50.930;4.038;2023-01-30T07:18:33;8.57;;;4.03;;
14510;SDS011;7341;50.930;4.038;2023-01-30T07:21:03;7.13;;;3.73;;
14510;SDS011;7341;50.930;4.038;2023-01-30T07:23:30;9.17;;;3.33;;
14510;SDS011;7341;50.930;4.038;2023-01-30T07:25:57;12.50;;;5.78;;
14510;SDS011;7341;50.930;4.038;2023-01-30T07:28:25;9.50;;;4.07;;
14510;SDS011;7341;50.930;4.038;2023-01-30T07:30:52;10.87;;;3.10;;
14510;SDS011;7341;50.930;4.038;2023-01-30T07:33:19;8.30;;;3.10;;
14510;SDS011;7341;50.930;4.038;2023-01-30T07:35:49;12.10;;;3.47;;
14510;SDS011;7341;50.930;4.038;2023-01-30T07:38:19;16.83;;;3.47;;
14510;SDS011;7341;50.930;4.038;2023-01-30T07:40:46;13.90;;;3.63;;
14510;SDS011;7341;50.930;4.038;2023-01-30T07:43:13;11.27;;;3.90;;
14510;SDS011;7341;50.930;4.038;2023-01-30T07:45:43;8.63;;;3.43;;
14510;SDS011;7341;50.930;4.038;2023-01-30T07:48:11;10.50;;;4.20;;
14510;SDS011;7341;50.930;4.038;2023-01-30T07:50:39;11.50;;;3.67;;
14510;SDS011;7341;50.930;4.038;2023-01-30T07:53:06;13.57;;;4.07;;
14510;SDS011;7341;50.930;4.038;2023-01-30T07:55:38;11.03;;;3.27;;
14510;SDS011;7341;50.930;4.038;2023-01-30T07:58:05;10.80;;;3.23;;
14510;SDS011;7341;50.930;4.038;2023-01-30T08:00:32;8.60;;;3.27;;
14510;SDS011;7341;50.930;4.038;2023-01-30T08:03:00;9.40;;;2.87;;
14510;SDS011;7341;50.930;4.038;2023-01-30T08:05:26;8.20;;;3.13;;
14510;SDS011;7341;50.930;4.038;2023-01-30T08:07:54;11.17;;;2.90;;
14510;SDS011;7341;50.930;4.038;2023-01-30T08:10:21;6.63;;;2.37;;
14510;SDS011;7341;50.930;4.038;2023-01-30T08:12:49;12.03;;;3.20;;
14510;SDS011;7341;50.930;4.038;2023-01-30T08:15:16;8.90;;;2.83;;
14510;SDS011;7341;50.930;4.038;2023-01-30T08:17:43;8.23;;;2.27;;
14510;SDS011;7341;50.930;4.038;2023-01-30T08:20:10;6.07;;;2.53;;
14510;SDS011;7341;50.930;4.038;2023-01-30T08:22:40;8.67;;;2.10;;
14510;SDS011;7341;50.930;4.038;2023-01-30T08:25:09;11.73;;;2.50;;
14510;SDS011;7341;50.930;4.038;2023-01-30T08:27:36;7.07;;;2.57;;
14510;SDS011;7341;50.930;4.038;2023-01-30T08:30:08;8.67;;;2.53;;
14510;SDS011;7341;50.930;4.038;2023-01-30T08:32:37;12.30;;;1.87;;
14510;SDS011;7341;50.930;4.038;2023-01-30T08:35:05;9.27;;;2.60;;
14510;SDS011;7341;50.930;4.038;2023-01-30T08:37:33;9.07;;;2.70;;
14510;SDS011;7341;50.930;4.038;2023-01-30T08:40:00;7.27;;;2.30;;
14510;SDS011;7341;50.930;4.038;2023-01-30T08:42:29;7.40;;;2.50;;
14510;SDS011;7341;50.930;4.038;2023-01-30T08:44:56;7.20;;;2.00;;
14510;SDS011;7341;50.930;4.038;2023-01-30T08:47:24;16.60;;;2.80;;
14510;SDS011;7341;50.930;4.038;2023-01-30T08:49:51;9.87;;;2.70;;
14510;SDS011;7341;50.930;4.038;2023-01-30T08:52:18;8.77;;;2.30;;
14510;SDS011;7341;50.930;4.038;2023-01-30T08:54:45;12.03;;;3.13;;
14510;SDS011;7341;50.930;4.038;2023-01-30T08:57:13;9.80;;;2.77;;
14510;SDS011;7341;50.930;4.038;2023-01-30T08:59:40;11.90;;;2.30;;
14510;SDS011;7341;50.930;4.038;2023-01-30T09:02:07;9.57;;;2.70;;
14510;SDS011;7341;50.930;4.038;2023-01-30T09:04:41;8.10;;;3.00;;
14510;SDS011;7341;50.930;4.038;2023-01-30T09:07:09;10.90;;;2.47;;
14510;SDS011;7341;50.930;4.038;2023-01-30T09:09:38;9.17;;;2.93;;
14510;SDS011;7341;50.930;4.038;2023-01-30T09:12:04;15.70;;;2.80;;
14510;SDS011;7341;50.930;4.038;2023-01-30T09:14:32;9.17;;;3.03;;
14510;SDS011;7341;50.930;4.038;2023-01-30T09:17:03;13.17;;;2.53;;
14510;SDS011;7341;50.930;4.038;2023-01-30T09:19:32;6.23;;;1.83;;
14510;SDS011;7341;50.930;4.038;2023-01-30T09:22:03;13.47;;;3.20;;
14510;SDS011;7341;50.930;4.038;2023-01-30T09:24:32;10.40;;;2.33;;
14510;SDS011;7341;50.930;4.038;2023-01-30T09:26:59;16.27;;;3.20;;
14510;SDS011;7341;50.930;4.038;2023-01-30T09:29:26;16.20;;;3.10;;
14510;SDS011;7341;50.930;4.038;2023-01-30T09:31:53;10.20;;;2.57;;
14510;SDS011;7341;50.930;4.038;2023-01-30T09:34:21;9.63;;;2.57;;
14510;SDS011;7341;50.930;4.038;2023-01-30T09:36:51;16.57;;;2.80;;
14510;SDS011;7341;50.930;4.038;2023-01-30T09:39:19;10.30;;;2.70;;
14510;SDS011;7341;50.930;4.038;2023-01-30T09:41:49;13.67;;;2.40;;
14510;SDS011;7341;50.930;4.038;2023-01-30T09:44:43;12.00;;;2.93;;
14510;SDS011;7341;50.930;4.038;2023-01-30T09:47:22;12.30;;;2.80;;
14510;SDS011;7341;50.930;4.038;2023-01-30T09:50:00;11.53;;;2.90;;
14510;SDS011;7341;50.930;4.038;2023-01-30T09:52:38;15.97;;;2.73;;
14510;SDS011;7341;50.930;4.038;2023-01-30T09:55:21;15.73;;;3.40;;
14510;SDS011;7341;50.930;4.038;2023-01-30T09:57:51;11.83;;;3.03;;
14510;SDS011;7341;50.930;4.038;2023-01-30T10:00:33;9.87;;;1.93;;
14510;SDS011;7341;50.930;4.038;2023-01-30T10:03:03;10.23;;;2.63;;
14510;SDS011;7341;50.930;4.038;2023-01-30T10:05:36;13.67;;;2.53;;
14510;SDS011;7341;50.930;4.038;2023-01-30T10:08:16;11.23;;;3.13;;
14510;SDS011;7341;50.930;4.038;2023-01-30T10:11:16;13.47;;;3.07;;
14510;SDS011;7341;50.930;4.038;2023-01-30T10:13:57;16.87;;;3.00;;
14510;SDS011;7341;50.930;4.038;2023-01-30T10:16:43;14.67;;;3.40;;
14510;SDS011;7341;50.930;4.038;2023-01-30T10:22:16;13.43;;;3.00;;
14510;SDS011;7341;50.930;4.038;2023-01-30T10:24:55;12.37;;;3.20;;
14510;SDS011;7341;50.930;4.038;2023-01-30T10:27:31;11.67;;;2.57;;
14510;SDS011;7341;50.930;4.038;2023-01-30T10:29:59;10.93;;;3.17;;
14510;SDS011;7341;50.930;4.038;2023-01-30T10:32:29;8.80;;;2.50;;
14510;SDS011;7341;50.930;4.038;2023-01-30T10:34:59;15.83;;;3.17;;
14510;SDS011;7341;50.930;4.038;2023-01-30T10:37:32;11.33;;;2.63;;
14510;SDS011;7341;50.930;4.038;2023-01-30T10:40:06;11.67;;;2.83;;
14510;SDS011;7341;50.930;4.038;2023-01-30T10:42:45;10.57;;;2.53;;
14510;SDS011;7341;50.930;4.038;2023-01-30T10:45:20;10.20;;;2.63;;
14510;SDS011;7341;50.930;4.038;2023-01-30T10:47:56;8.57;;;2.20;;
14510;SDS011;7341;50.930;4.038;2023-01-30T10:50:33;18.17;;;2.97;;
14510;SDS011;7341;50.930;4.038;2023-01-30T10:53:11;9.03;;;2.60;;
14510;SDS011;7341;50.930;4.038;2023-01-30T10:55:43;15.90;;;3.07;;
14510;SDS011;7341;50.930;4.038;2023-01-30T10:58:16;8.50;;;1.93;;
14510;SDS011;7341;50.930;4.038;2023-01-30T11:00:51;13.77;;;2.90;;
14510;SDS011;7341;50.930;4.038;2023-01-30T11:03:27;9.20;;;2.67;;
14510;SDS011;7341;50.930;4.038;2023-01-30T11:06:02;13.40;;;2.77;;
14510;SDS011;7341;50.930;4.038;2023-01-30T11:08:40;9.47;;;2.23;;
14510;SDS011;7341;50.930;4.038;2023-01-30T11:14:02;10.97;;;2.00;;
14510;SDS011;7341;50.930;4.038;2023-01-30T11:16:30;6.50;;;1.83;;
14510;SDS011;7341;50.930;4.038;2023-01-30T11:19:04;10.77;;;1.90;;
14510;SDS011;7341;50.930;4.038;2023-01-30T11:21:31;7.83;;;2.43;;
14510;SDS011;7341;50.930;4.038;2023-01-30T11:24:02;12.53;;;2.90;;
14510;SDS011;7341;50.930;4.038;2023-01-30T11:26:33;9.43;;;2.97;;
14510;SDS011;7341;50.930;4.038;2023-01-30T11:29:14;12.57;;;2.63;;
14510;SDS011;7341;50.930;4.038;2023-01-30T11:31:51;10.97;;;2.37;;
14510;SDS011;7341;50.930;4.038;2023-01-30T11:34:19;9.60;;;3.10;;
14510;SDS011;7341;50.930;4.038;2023-01-30T11:36:49;9.50;;;2.63;;
14510;SDS011;7341;50.930;4.038;2023-01-30T11:39:20;10.00;;;2.67;;
14510;SDS011;7341;50.930;4.038;2023-01-30T11:41:56;12.73;;;2.23;;
14510;SDS011;7341;50.930;4.038;2023-01-30T11:44:30;12.77;;;2.37;;
14510;SDS011;7341;50.930;4.038;2023-01-30T11:47:00;12.47;;;2.50;;
14510;SDS011;7341;50.930;4.038;2023-01-30T11:49:34;10.23;;;2.50;;
14510;SDS011;7341;50.930;4.038;2023-01-30T11:52:03;11.77;;;2.77;;
14510;SDS011;7341;50.930;4.038;2023-01-30T11:54:33;11.83;;;2.43;;
14510;SDS011;7341;50.930;4.038;2023-01-30T11:57:03;13.70;;;2.50;;
14510;SDS011;7341;50.930;4.038;2023-01-30T11:59:38;15.57;;;3.33;;
14510;SDS011;7341;50.930;4.038;2023-01-30T12:02:11;11.77;;;2.63;;
14510;SDS011;7341;50.930;4.038;2023-01-30T12:04:43;13.40;;;2.27;;
14510;SDS011;7341;50.930;4.038;2023-01-30T12:07:15;7.00;;;2.77;;
14510;SDS011;7341;50.930;4.038;2023-01-30T12:09:44;11.50;;;2.60;;
14510;SDS011;7341;50.930;4.038;2023-01-30T12:12:27;8.23;;;2.60;;
14510;SDS011;7341;50.930;4.038;2023-01-30T12:15:05;10.80;;;3.00;;
14510;SDS011;7341;50.930;4.038;2023-01-30T12:17:43;8.93;;;2.13;;
14510;SDS011;7341;50.930;4.038;2023-01-30T12:20:16;12.80;;;3.33;;
14510;SDS011;7341;50.930;4.038;2023-01-30T12:22:52;8.97;;;2.83;;
14510;SDS011;7341;50.930;4.038;2023-01-30T12:25:28;14.70;;;2.80;;
14510;SDS011;7341;50.930;4.038;2023-01-30T12:28:00;9.37;;;2.50;;
14510;SDS011;7341;50.930;4.038;2023-01-30T12:30:32;15.07;;;2.73;;
14510;SDS011;7341;50.930;4.038;2023-01-30T12:33:03;13.63;;;4.00;;
14510;SDS011;7341;50.930;4.038;2023-01-30T12:35:45;12.50;;;2.40;;
14510;SDS011;7341;50.930;4.038;2023-01-30T12:38:24;10.53;;;2.93;;
14510;SDS011;7341;50.930;4.038;2023-01-30T12:41:04;11.93;;;2.97;;
14510;SDS011;7341;50.930;4.038;2023-01-30T12:43:45;10.97;;;2.80;;
14510;SDS011;7341;50.930;4.038;2023-01-30T12:46:32;11.33;;;2.23;;
14510;SDS011;7341;50.930;4.038;2023-01-30T12:49:20;10.87;;;2.70;;
14510;SDS011;7341;50.930;4.038;2023-01-30T12:52:10;17.43;;;3.93;;
14510;SDS011;7341;50.930;4.038;2023-01-30T12:54:53;8.07;;;2.37;;
14510;SDS011;7341;50.930;4.038;2023-01-30T12:57:26;15.33;;;3.20;;
14510;SDS011;7341;50.930;4.038;2023-01-30T13:00:08;13.40;;;3.00;;
14510;SDS011;7341;50.930;4.038;2023-01-30T13:02:56;12.80;;;2.80;;
14510;SDS011;7341;50.930;4.038;2023-01-30T13:05:38;6.63;;;2.57;;
14510;SDS011;7341;50.930;4.038;2023-01-30T13:11:14;11.43;;;2.40;;
14510;SDS011;7341;50.930;4.038;2023-01-30T13:13:57;16.77;;;2.97;;
14510;SDS011;7341;50.930;4.038;2023-01-30T13:16:31;14.17;;;2.60;;
14510;SDS011;7341;50.930;4.038;2023-01-30T13:19:04;11.17;;;2.20;;
14510;SDS011;7341;50.930;4.038;2023-01-30T13:21:40;14.47;;;3.03;;
14510;SDS011;7341;50.930;4.038;2023-01-30T13:24:14;8.27;;;2.50;;
14510;SDS011;7341;50.930;4.038;2023-01-30T13:26:49;12.33;;;3.27;;
14510;SDS011;7341;50.930;4.038;2023-01-30T13:29:19;13.23;;;2.23;;
14510;SDS011;7341;50.930;4.038;2023-01-30T13:31:52;17.17;;;2.90;;
14510;SDS011;7341;50.930;4.038;2023-01-30T13:34:27;9.73;;;2.27;;
14510;SDS011;7341;50.930;4.038;2023-01-30T13:36:59;11.60;;;2.70;;
14510;SDS011;7341;50.930;4.038;2023-01-30T13:42:12;15.47;;;2.70;;
14510;SDS011;7341;50.930;4.038;2023-01-30T13:44:51;10.37;;;2.23;;
14510;SDS011;7341;50.930;4.038;2023-01-30T13:47:27;11.10;;;2.43;;
14510;SDS011;7341;50.930;4.038;2023-01-30T13:53:18;14.37;;;2.70;;
14510;SDS011;7341;50.930;4.038;2023-01-30T13:55:54;20.48;;;4.20;;
14510;SDS011;7341;50.930;4.038;2023-01-30T13:58:30;12.17;;;2.50;;
14510;SDS011;7341;50.930;4.038;2023-01-30T14:01:08;8.20;;;2.73;;
14510;SDS011;7341;50.930;4.038;2023-01-30T14:03:38;10.40;;;2.53;;
14510;SDS011;7341;50.930;4.038;2023-01-30T14:06:08;27.57;;;3.30;;
14510;SDS011;7341;50.930;4.038;2023-01-30T14:08:53;16.17;;;2.83;;
14510;SDS011;7341;50.930;4.038;2023-01-30T14:11:27;12.77;;;2.77;;
14510;SDS011;7341;50.930;4.038;2023-01-30T14:14:19;13.50;;;2.60;;
14510;SDS011;7341;50.930;4.038;2023-01-30T14:16:53;14.73;;;2.73;;
14510;SDS011;7341;50.930;4.038;2023-01-30T14:19:32;9.03;;;2.13;;
14510;SDS011;7341;50.930;4.038;2023-01-30T14:37:29;14.40;;;2.87;;
14510;SDS011;7341;50.930;4.038;2023-01-30T14:40:27;8.53;;;2.40;;
14510;SDS011;7341;50.930;4.038;2023-01-30T14:46:04;13.03;;;2.93;;
14510;SDS011;7341;50.930;4.038;2023-01-30T14:48:32;15.40;;;2.93;;
14510;SDS011;7341;50.930;4.038;2023-01-30T14:53:59;11.50;;;2.93;;
14510;SDS011;7341;50.930;4.038;2023-01-30T14:56:43;9.67;;;2.30;;
14510;SDS011;7341;50.930;4.038;2023-01-30T14:59:23;15.80;;;2.40;;
14510;SDS011;7341;50.930;4.038;2023-01-30T15:01:59;9.40;;;2.40;;
14510;SDS011;7341;50.930;4.038;2023-01-30T15:04:32;11.87;;;2.83;;
14510;SDS011;7341;50.930;4.038;2023-01-30T15:07:06;6.67;;;2.33;;
14510;SDS011;7341;50.930;4.038;2023-01-30T15:09:37;16.83;;;3.90;;
14510;SDS011;7341;50.930;4.038;2023-01-30T15:18:03;13.60;;;3.13;;
14510;SDS011;7341;50.930;4.038;2023-01-30T15:20:44;22.53;;;3.53;;
14510;SDS011;7341;50.930;4.038;2023-01-30T15:23:29;13.57;;;3.47;;
14510;SDS011;7341;50.930;4.038;2023-01-30T15:26:16;17.83;;;2.90;;
14510;SDS011;7341;50.930;4.038;2023-01-30T15:28:54;12.20;;;2.60;;
14510;SDS011;7341;50.930;4.038;2023-01-30T15:31:34;11.93;;;2.57;;
14510;SDS011;7341;50.930;4.038;2023-01-30T15:34:02;15.85;;;3.63;;
14510;SDS011;7341;50.930;4.038;2023-01-30T15:36:30;17.17;;;3.00;;
14510;SDS011;7341;50.930;4.038;2023-01-30T15:38:59;15.57;;;3.17;;
14510;SDS011;7341;50.930;4.038;2023-01-30T15:41:29;15.13;;;3.70;;
14510;SDS011;7341;50.930;4.038;2023-01-30T15:47:20;10.63;;;2.60;;
14510;SDS011;7341;50.930;4.038;2023-01-30T15:49:59;16.13;;;3.40;;
14510;SDS011;7341;50.930;4.038;2023-01-30T15:52:35;12.43;;;2.63;;
14510;SDS011;7341;50.930;4.038;2023-01-30T15:55:05;12.57;;;3.13;;
14510;SDS011;7341;50.930;4.038;2023-01-30T15:57:40;11.97;;;2.80;;
14510;SDS011;7341;50.930;4.038;2023-01-30T16:00:15;13.57;;;2.83;;
14510;SDS011;7341;50.930;4.038;2023-01-30T16:02:51;11.30;;;3.47;;
14510;SDS011;7341;50.930;4.038;2023-01-30T16:05:19;16.97;;;3.50;;
14510;SDS011;7341;50.930;4.038;2023-01-30T16:07:50;14.77;;;2.90;;
14510;SDS011;7341;50.930;4.038;2023-01-30T16:10:18;16.53;;;4.03;;
14510;SDS011;7341;50.930;4.038;2023-01-30T16:12:48;15.17;;;3.30;;
14510;SDS011;7341;50.930;4.038;2023-01-30T16:15:19;14.10;;;3.50;;